Latest Weather Observations for Cape Bruny AWS

IDT60801

Issued at 7:03 pm EDT Tuesday 27 January 2015 (issued every 30 minutes, with the page automatically refreshed every 10 minutes)

About weather observations | Map of weather stations | Latest weather observations for TAS | Other Formats
Station Details ID: 094198 Name: CAPE BRUNY (CAPE BRUNY) Lat: -43.49 Lon: 147.14 Height: 59.7 m
Data from the previous 72 hours. | See also: Recent months at Cape Bruny AWS
Date/Time
EDT
Temp
°C
App
Temp
°C
Dew
Point
Rel
Hum
%
Delta-T
°C
Wind Press
QNH
hPa
Press
MSL
hPa
Rain
since 9 am
mm
Dir
 
Spd
km/h
Gust
km/h
Spd
kts
Gust
kts
27/07:00pm 13.2 6.5 7.4 68 2.8 SW 32 41 17 22 1020.0 1019.9 0.0
27/06:30pm 14.1 8.2 7.4 64 3.3 SW 28 41 15 22 1019.6 1019.5 0.0
27/06:00pm 14.8 9.4 9.4 70 2.8 SW 28 39 15 21 1019.3 1019.2 0.0
27/05:30pm 13.4 6.2 9.1 75 2.2 SW 37 50 20 27 1018.9 1018.9 0.0
27/05:00pm 14.7 8.3 9.5 71 2.7 SW 33 48 18 26 1018.9 1018.9 0.0
27/04:30pm 16.0 10.1 9.0 63 3.6 SW 30 41 16 22 1018.7 1018.7 0.0
27/04:00pm 15.4 9.9 9.1 66 3.2 SW 28 41 15 22 1018.7 1018.7 0.0
27/03:30pm 15.1 7.8 8.6 65 3.3 SW 37 46 20 25 1018.4 1018.4 0.0
27/03:00pm 15.0 7.7 7.3 60 3.8 SW 35 46 19 25 1018.2 1018.2 0.0
27/02:54pm 16.3 9.8 8.0 58 4.2 SW 32 46 17 25 1018.2 1018.2 0.0
27/02:30pm 16.5 12.2 8.0 57 4.3 WSW 20 26 11 14 1018.1 1018.1 0.0
27/02:00pm 15.7 10.8 8.4 62 3.7 WSW 24 33 13 18 1018.2 1018.2 0.0
27/01:30pm 15.4 11.1 7.7 60 3.8 W 20 26 11 14 1018.2 1018.2 0.0
27/01:06pm 15.4 11.1 7.9 61 3.8 SW 20 41 11 22 1018.1 1018.1 0.0
27/01:00pm 16.0 12.8 7.0 55 4.4 SSW 13 19 7 10 1018.2 1018.2 0.0
27/12:30pm 15.7 13.1 7.7 59 4.0 W 11 15 6 8 1018.2 1018.2 0.0
27/12:00pm 15.7 13.4 7.5 58 4.1 WNW 9 13 5 7 1018.1 1018.1 0.0
27/11:30am 14.9 11.5 7.7 62 3.6 WNW 15 19 8 10 1018.1 1018.1 0.0
27/11:00am 14.8 11.6 8.3 65 3.3 WNW 15 19 8 10 1018.1 1018.1 0.0
27/10:30am 14.3 10.7 8.5 68 2.9 WNW 17 20 9 11 1018.0 1018.0 0.0
27/10:00am 14.2 10.3 7.0 62 3.5 WNW 17 20 9 11 1017.8 1017.8 0.0
27/09:30am 13.4 10.9 6.5 63 3.3 NW 9 15 5 8 1017.7 1017.7 0.0
27/09:00am 13.6 11.0 6.2 61 3.5 WNW 9 13 5 7 1017.5 1017.5 0.8
27/08:30am 13.8 10.7 7.3 65 3.2 WNW 13 17 7 9 1017.5 1017.5 0.8
27/08:00am 12.9 9.3 6.7 66 3.0 W 15 22 8 12 1017.2 1017.2 0.8
27/07:30am 12.4 9.5 6.7 68 2.7 NW 11 17 6 9 1016.8 1016.8 0.8
27/07:00am 11.5 8.6 6.6 72 2.3 NW 11 13 6 7 1016.6 1016.6 0.8
27/06:30am 11.3 8.0 6.2 71 2.4 NW 13 19 7 10 1016.5 1016.5 0.8
27/06:00am 11.5 8.1 6.0 69 2.6 NW 13 17 7 9 1016.5 1016.5 0.8
27/05:30am 11.1 8.2 6.5 73 2.2 W 11 15 6 8 1016.2 1016.2 0.8
27/05:00am 10.8 8.6 6.0 72 2.2 NW 7 13 4 7 1016.2 1016.2 0.8
27/04:30am 10.3 6.8 5.3 71 2.3 NW 13 15 7 8 1016.1 1016.1 0.8
27/04:00am 11.1 7.7 6.0 71 2.4 NW 13 19 7 10 1016.2 1016.2 0.8
27/03:30am 10.3 7.8 6.5 77 1.8 NW 9 13 5 7 1016.4 1016.4 0.8
27/03:00am 10.6 9.0 6.2 74 2.1 NW 4 11 2 6 1016.7 1016.7 0.8
27/02:30am 11.2 7.5 6.5 73 2.2 WNW 15 20 8 11 1017.0 1017.0 0.8
27/02:00am 11.0 7.3 6.4 73 2.2 NW 15 20 8 11 1017.0 1017.0 0.8
27/01:30am 11.3 6.9 6.4 72 2.3 WNW 19 24 10 13 1017.0 1017.0 0.8
27/01:00am 11.7 6.7 6.4 70 2.5 WNW 22 30 12 16 1017.0 1017.0 0.8
27/12:30am 12.0 6.6 6.3 68 2.7 WNW 24 30 13 16 1017.0 1017.0 0.8
27/12:00am 12.3 5.3 6.1 66 2.9 WNW 32 41 17 22 1017.0 1017.0 0.8
 
Date/Time
EDT
Temp
°C
App
Temp
°C
Dew
Point
Rel
Hum
%
Delta-T
°C
Wind Press
QNH
hPa
Press
MSL
hPa
Rain
since 9 am
mm
Dir
 
Spd
km/h
Gust
km/h
Spd
kts
Gust
kts
26/11:30pm 12.5 5.3 5.9 64 3.1 W 33 39 18 21 1016.9 1016.9 0.8
26/11:00pm 12.5 6.3 6.1 65 3.0 WNW 28 33 15 18 1017.0 1017.0 0.8
26/10:30pm 12.1 7.7 7.4 73 2.3 WSW 20 28 11 15 1017.1 1017.1 0.8
26/10:00pm 11.9 7.5 7.2 73 2.3 WSW 20 28 11 15 1017.0 1017.0 0.8
26/09:30pm 12.3 7.0 6.6 68 2.7 WSW 24 33 13 18 1016.6 1016.6 0.8
26/09:00pm 12.3 7.9 7.4 72 2.4 WSW 20 30 11 16 1016.4 1016.4 0.8
26/08:30pm 12.5 7.5 6.3 66 2.9 WSW 22 30 12 16 1016.0 1016.0 0.8
26/08:00pm 12.7 7.0 6.5 66 3.0 WSW 26 35 14 19 1015.6 1015.6 0.8
26/07:30pm 13.2 7.3 7.6 69 2.8 WSW 28 37 15 20 1015.1 1015.1 0.8
26/07:00pm 13.6 6.9 8.0 69 2.8 WSW 33 44 18 24 1014.8 1014.8 0.8
26/06:30pm 13.3 7.0 7.3 67 2.9 WSW 30 41 16 22 1014.5 1014.5 0.8
26/06:00pm 13.7 5.9 6.6 62 3.4 WSW 37 44 20 24 1014.1 1014.0 0.8
26/05:30pm 14.1 8.9 7.2 63 3.4 WSW 24 33 13 18 1014.2 1014.1 0.8
26/05:00pm 13.9 7.0 6.5 61 3.6 WSW 32 43 17 23 1014.3 1014.2 0.8
26/04:30pm 15.0 7.4 6.0 55 4.3 WSW 35 43 19 23 1014.3 1014.2 0.8
26/04:00pm 13.7 5.0 5.8 59 3.7 WSW 41 50 22 27 1014.1 1014.0 0.8
26/03:30pm 13.1 4.1 6.2 63 3.3 W 43 56 23 30 1014.0 1013.9 0.8
26/03:00pm 12.7 3.1 6.1 64 3.1 WSW 46 63 25 34 1014.2 1014.1 0.8
26/02:30pm 11.9 3.5 7.2 73 2.3 WSW 41 57 22 31 1014.1 1014.0 0.8
26/02:15pm 13.3 5.8 6.4 63 3.3 WSW 35 54 19 29 1014.0 1013.9 0.8
26/02:00pm 15.5 8.7 6.8 56 4.3 WSW 32 43 17 23 1013.9 1013.8 0.8
26/01:30pm 12.8 5.9 6.4 65 3.1 WSW 32 48 17 26 1013.9 1013.8 0.8
26/01:00pm 12.0 3.9 7.1 72 2.4 WSW 39 50 21 27 1013.8 1013.7 0.8
26/12:56pm 12.0 5.2 6.9 71 2.4 WSW 32 50 17 27 1013.8 1013.7 0.8
26/12:30pm 14.7 8.8 7.7 63 3.5 W 28 33 15 18 1013.6 1013.5 0.8
26/12:05pm 11.8 3.5 6.1 68 2.7 W 39 57 21 31 1013.4 1013.3 0.8
26/12:00pm 11.8 3.0 5.7 66 2.8 W 41 57 22 31 1013.3 1013.2 0.8
26/11:58am 11.9 3.2 6.2 68 2.7 W 41 57 22 31 1013.2 1013.1 0.8
26/11:30am 12.6 5.8 6.9 68 2.7 W 32 39 17 21 1013.2 1013.1 0.8
26/11:01am 10.6 4.6 6.9 78 1.8 WSW 28 50 15 27 1013.1 1013.0 0.6
26/11:00am 10.7 5.0 6.6 76 1.9 WSW 26 50 14 27 1013.1 1013.0 0.6
26/10:30am 12.1 6.9 8.9 81 1.6 W 26 35 14 19 1012.7 1012.6 0.4
26/10:00am 11.5 6.2 6.6 72 2.3 WNW 24 32 13 17 1012.4 1012.3 0.0
26/09:30am 12.1 5.0 6.2 67 2.8 W 33 50 18 27 1011.9 1011.8 0.0
26/09:00am 11.7 4.7 6.8 72 2.3 W 33 41 18 22 1011.5 1011.4 4.8
26/08:30am 11.9 3.7 6.4 69 2.6 W 39 46 21 25 1011.0 1010.9 4.8
26/08:00am 10.8 4.4 6.9 77 1.9 W 30 43 16 23 1010.5 1010.4 4.8
26/07:30am 10.0 2.6 6.7 80 1.6 WNW 35 43 19 23 1009.9 1009.8 4.8
26/07:14am 10.3 2.5 6.5 77 1.8 W 37 56 20 30 1009.4 1009.3 4.8
26/07:00am 10.9 3.5 6.6 75 2.0 W 35 46 19 25 1009.0 1008.9 4.8
26/06:30am 10.5 1.4 5.9 73 2.1 W 43 56 23 30 1008.6 1008.5 4.8
26/06:13am 10.6 2.3 6.2 74 2.1 W 39 57 21 31 1008.1 1008.0 4.8
26/06:00am 10.4 1.8 6.4 76 1.9 W 41 48 22 26 1007.7 1007.6 4.8
26/05:30am 10.1 0.8 5.9 75 1.9 W 44 57 24 31 1007.4 1007.3 4.8
26/05:00am 10.2 1.2 6.2 76 1.9 W 43 54 23 29 1007.0 1006.9 4.8
26/04:30am 10.0 1.9 6.9 81 1.5 W 39 50 21 27 1006.5 1006.4 4.8
26/04:00am 9.7 -0.4 5.7 76 1.8 W 48 57 26 31 1006.0 1005.9 4.8
26/03:30am 9.4 1.1 6.1 80 1.5 W 39 54 21 29 1006.1 1006.0 4.6
26/03:22am 9.7 3.1 6.2 79 1.6 WNW 30 50 16 27 1006.2 1006.1 4.6
26/03:00am 9.4 0.1 6.1 80 1.5 W 44 52 24 28 1005.7 1005.6 4.6
26/02:30am 9.4 2.4 5.8 78 1.7 WNW 32 43 17 23 1005.4 1005.3 4.2
26/02:00am 9.2 2.2 5.8 79 1.6 WNW 32 43 17 23 1005.0 1004.9 4.2
26/01:30am 9.2 3.1 6.6 84 1.2 WNW 28 35 15 19 1005.1 1005.0 4.0
26/01:05am 9.1 2.8 5.7 79 1.6 WNW 28 46 15 25 1004.9 1004.8 3.2
26/01:00am 9.4 4.3 6.1 80 1.5 NW 22 33 12 18 1005.0 1004.9 3.0
26/12:30am 8.8 2.9 5.7 81 1.4 W 26 33 14 18 1004.8 1004.7 3.0
26/12:10am 9.6 1.7 6.0 78 1.7 WNW 37 50 20 27 1005.0 1004.9 2.6
26/12:00am 10.3 2.5 4.9 69 2.5 NW 35 43 19 23 1004.7 1004.6 2.2
 
Date/Time
EDT
Temp
°C
App
Temp
°C
Dew
Point
Rel
Hum
%
Delta-T
°C
Wind Press
QNH
hPa
Press
MSL
hPa
Rain
since 9 am
mm
Dir
 
Spd
km/h
Gust
km/h
Spd
kts
Gust
kts
25/11:30pm 9.8 1.9 4.4 69 2.4 NW 35 46 19 25 1004.4 1004.3 2.2
25/11:00pm 9.8 3.4 5.0 72 2.2 WNW 28 39 15 21 1004.5 1004.4 2.2
25/10:30pm 10.1 4.6 5.9 75 1.9 WNW 24 35 13 19 1004.1 1004.0 2.2
25/10:00pm 9.8 3.4 5.4 74 2.0 WNW 28 43 15 23 1003.8 1003.7 2.2
25/09:30pm 9.7 3.3 5.3 74 2.0 WNW 28 41 15 22 1003.4 1003.3 2.2
25/09:00pm 9.8 3.9 5.6 75 1.9 W 26 33 14 18 1003.2 1003.1 2.2
25/08:30pm 10.8 3.2 5.8 71 2.3 W 35 41 19 22 1003.1 1003.0 2.2
25/08:00pm 10.3 3.9 5.3 71 2.3 WNW 28 39 15 21 1002.3 1002.2 2.2
25/07:30pm 10.9 5.3 5.4 69 2.5 WNW 24 32 13 17 1001.9 1001.8 2.2
25/07:00pm 10.6 3.1 6.2 74 2.1 WNW 35 46 19 25 1001.4 1001.4 2.2
25/06:30pm 10.4 1.1 5.2 70 2.4 W 43 52 23 28 1001.0 1001.0 2.2
25/06:27pm 10.5 1.4 5.7 72 2.2 W 43 52 23 28 1001.0 1001.0 2.2
25/06:01pm 10.3 1.2 6.1 75 2.0 WSW 43 61 23 33 1000.6 1000.6 2.2
25/06:00pm 10.2 1.2 6.4 77 1.8 WSW 43 57 23 31 1000.7 1000.7 2.2
25/05:53pm 10.2 3.8 5.4 72 2.2 W 28 52 15 28 1000.8 1000.8 2.2
25/05:30pm 10.6 4.6 6.9 78 1.8 WNW 28 35 15 19 1000.4 1000.4 2.2
25/05:00pm 10.2 3.6 6.0 75 2.0 WNW 30 39 16 21 1000.3 1000.2 2.2
25/04:30pm 9.5 -0.8 6.4 81 1.4 W 50 65 27 35 1000.1 1000.0 1.8
25/04:19pm 10.5 3.7 6.8 78 1.8 WSW 32 52 17 28 1000.4 1000.4 1.6
25/04:00pm 11.5 4.6 6.4 71 2.4 WNW 32 43 17 23 999.9 999.8 1.6
25/03:31pm 10.7 3.6 6.5 75 2.0 WNW 33 52 18 28 999.7 999.6 1.6
25/03:30pm 10.6 3.1 6.4 75 2.0 WNW 35 52 19 28 999.7 999.6 1.6
25/03:16pm 10.5 2.8 7.0 79 1.7 WNW 37 56 20 30 999.2 999.1 1.6
25/03:00pm 10.9 2.6 7.8 81 1.5 WNW 41 50 22 27 999.6 999.5 1.6
25/02:55pm 10.7 2.0 7.6 81 1.5 WNW 43 52 23 28 999.6 999.5 1.4
25/02:30pm 13.1 6.5 6.0 62 3.4 WSW 30 50 16 27 999.1 999.0 0.6
25/02:00pm 14.2 8.7 6.1 58 3.9 WSW 24 32 13 17 998.9 998.8 0.6
25/01:30pm 16.8 11.7 6.0 49 5.3 WSW 22 28 12 15 998.8 998.7 0.6
25/01:00pm 14.3 8.6 6.9 61 3.6 W 26 35 14 19 998.7 998.6 0.6
25/12:30pm 13.3 5.8 6.4 63 3.3 WSW 35 48 19 26 998.6 998.5 0.6
25/12:00pm 12.2 6.7 7.5 73 2.3 WSW 26 39 14 21 998.7 998.6 0.6
25/11:30am 11.9 7.4 8.4 79 1.7 W 22 30 12 16 998.6 998.5 0.6
25/11:00am 9.9 0.5 7.3 84 1.2 W 46 67 25 36 998.8 998.7 0.4
25/10:58am 10.0 0.2 7.1 82 1.4 W 48 67 26 36 998.6 998.5 0.0
25/10:52am 11.1 2.5 6.3 72 2.3 W 41 67 22 36 998.3 998.2 0.0
25/10:46am 13.0 7.0 7.0 67 2.9 W 28 48 15 26 998.5 998.4 0.0
25/10:30am 13.5 8.3 7.3 66 3.0 WSW 24 32 13 17 998.3 998.2 0.0
25/10:00am 13.3 8.0 6.6 64 3.2 W 24 30 13 16 998.2 998.1 0.0
25/09:30am 12.9 7.8 7.6 70 2.6 W 24 33 13 18 998.5 998.4 0.0
25/09:00am 12.5 5.4 6.5 67 2.9 WSW 33 43 18 23 998.4 998.3 0.0
25/08:50am 12.6 6.4 6.2 65 3.0 WSW 28 37 15 20 998.2 998.1 0.0
25/08:30am 12.7 9.4 6.3 65 3.0 WSW 13 17 7 9 998.5 998.4 0.0
25/08:00am 12.8 8.2 6.4 65 3.1 W 20 26 11 14 998.4 998.3 0.0
25/07:30am 12.8 7.5 6.6 66 3.0 WSW 24 30 13 16 997.8 997.7 0.0
25/07:00am 12.8 5.6 7.5 70 2.6 WSW 35 48 19 26 997.6 997.5 0.0
25/06:30am 12.7 6.0 8.0 73 2.3 WSW 33 44 18 24 997.5 997.4 0.0
25/06:00am 12.8 6.0 7.9 72 2.4 WSW 33 43 18 23 997.5 997.4 0.0
25/05:30am 13.0 4.8 8.3 73 2.3 W 41 56 22 30 996.7 996.6 0.0
25/05:00am 12.8 3.3 8.3 74 2.3 WSW 48 59 26 32 996.2 996.1 0.0
25/04:30am 12.5 3.4 9.7 83 1.4 WSW 48 63 26 34 996.3 996.2 0.0
25/04:19am 12.6 2.9 9.2 80 1.7 WSW 50 69 27 37 996.2 996.1 0.0
25/04:09am 13.6 5.9 10.2 80 1.8 WSW 41 59 22 32 996.2 996.1 0.0
25/04:00am 13.5 7.9 10.3 81 1.7 WSW 30 41 16 22 996.1 996.0 0.0
25/03:30am 13.5 5.4 10.1 80 1.8 WSW 43 50 23 27 996.2 996.1 0.0
25/03:13am 14.6 9.4 10.4 76 2.2 W 28 46 15 25 996.1 996.0 0.0
25/03:00am 15.1 12.3 11.5 79 2.0 WNW 17 20 9 11 996.0 995.9 0.0
25/02:30am 15.1 11.8 9.7 70 2.8 NNW 17 24 9 13 995.9 995.8 0.0
25/02:00am 14.3 12.5 10.9 80 1.8 N 11 17 6 9 996.2 996.1 0.0
25/01:30am 14.1 13.2 11.3 83 1.5 N 7 11 4 6 996.5 996.4 0.0
25/01:00am 14.2 13.2 11.0 81 1.7 SW 7 11 4 6 996.9 996.8 0.0
25/12:30am 14.2 12.9 11.2 82 1.6 WSW 9 15 5 8 997.2 997.1 0.0
25/12:00am 14.1 13.2 10.7 80 1.8 N 6 9 3 5 997.5 997.4 0.0
 
Date/Time
EDT
Temp
°C
App
Temp
°C
Dew
Point
Rel
Hum
%
Delta-T
°C
Wind Press
QNH
hPa
Press
MSL
hPa
Rain
since 9 am
mm
Dir
 
Spd
km/h
Gust
km/h
Spd
kts
Gust
kts
24/11:30pm 14.0 12.0 10.2 78 2.0 NE 11 15 6 8 997.6 997.5 0.0
24/11:00pm 14.3 12.3 10.1 76 2.2 NNW 11 15 6 8 998.2 998.1 0.0
24/10:30pm 14.8 12.5 10.4 75 2.3 NW 13 17 7 9 998.4 998.3 0.0
24/10:00pm 14.2 12.5 10.0 76 2.2 W 9 13 5 7 998.5 998.4 0.0
24/09:30pm 14.3 12.9 9.7 74 2.4 E 7 9 4 5 998.4 998.3 0.0
24/09:00pm 15.0 12.3 10.2 73 2.5 E 15 19 8 10 998.4 998.3 0.0
24/08:30pm 15.1 11.8 9.5 69 2.9 ESE 17 20 9 11 998.6 998.5 0.0
24/08:00pm 15.6 11.5 8.8 64 3.5 ESE 20 24 11 13 998.3 998.2 0.0
24/07:30pm 16.2 12.8 9.2 63 3.6 SE 17 20 9 11 998.4 998.3 0.0

Other Formats:

Comma delimited format used in spreadsheet applications
http://www.bom.gov.au/fwo/IDT60801/IDT60801.95967.axf

JavaScript Object Notation format (JSON) in row-major order
http://www.bom.gov.au/fwo/IDT60801/IDT60801.95967.json